Time;durP1;ratioP1;P1;durP2;ratioP2;P2;SDS_P1;SDS_P2;PMS_P1;PMS_P2;Temp;Humidity;BMP_temperature;BMP_pressure;BME280_temperature;BME280_humidity;BME280_pressure;Samples;Min_cycle;Max_cycle;Signal;HPM_P1;HPM_P2
2021/04/15 00:02:05;;;;;;;4.23;2.80;;;1.00;99.90;;;;;;5045826;28;20741;-64
2021/04/15 00:04:31;;;;;;;4.20;2.87;;;1.00;99.90;;;;;;5047126;28;20195;-67
2021/04/15 00:06:58;;;;;;;4.50;2.97;;;0.90;99.90;;;;;;5047666;28;20227;-70
2021/04/15 00:09:25;;;;;;;4.57;3.10;;;0.90;99.90;;;;;;5046026;28;20199;-68
2021/04/15 00:11:52;;;;;;;7.27;4.23;;;0.80;99.90;;;;;;5047834;28;20204;-64
2021/04/15 00:14:22;;;;;;;7.00;3.23;;;0.70;99.90;;;;;;5045517;28;20250;-66
2021/04/15 00:16:49;;;;;;;10.53;3.83;;;0.70;99.90;;;;;;5047997;28;20199;-65
2021/04/15 00:19:18;;;;;;;6.80;3.97;;;0.70;99.90;;;;;;5045978;28;20278;-64
2021/04/15 00:21:45;;;;;;;5.67;3.80;;;0.70;99.90;;;;;;5047646;28;20686;-65
2021/04/15 00:24:11;;;;;;;6.87;4.33;;;0.70;99.90;;;;;;5046910;28;20294;-66
2021/04/15 00:26:38;;;;;;;7.43;4.20;;;0.70;99.90;;;;;;5047483;28;20227;-77
2021/04/15 00:29:05;;;;;;;8.83;4.20;;;0.70;99.90;;;;;;5045808;28;20203;-64
2021/04/15 00:31:32;;;;;;;7.33;4.03;;;0.60;99.90;;;;;;5047410;28;20203;-66
2021/04/15 00:33:59;;;;;;;6.50;4.30;;;0.50;99.90;;;;;;5046551;28;20204;-66
2021/04/15 00:36:26;;;;;;;8.23;4.40;;;0.60;99.90;;;;;;5047782;28;20203;-64
2021/04/15 00:38:53;;;;;;;6.77;5.17;;;0.50;99.90;;;;;;5045688;28;20264;-68
2021/04/15 00:41:21;;;;;;;8.70;4.40;;;0.50;99.90;;;;;;5047695;28;20192;-67
2021/04/15 00:43:48;;;;;;;10.63;4.97;;;0.40;99.90;;;;;;5046308;28;20770;-65
2021/04/15 00:46:47;;;;;;;6.37;4.60;;;0.40;99.90;;;;;;5047460;28;20707;-65
2021/04/15 00:49:18;;;;;;;8.47;5.00;;;0.40;99.90;;;;;;5041327;28;20195;-65
2021/04/15 00:51:48;;;;;;;6.13;4.17;;;0.30;99.90;;;;;;5066936;28;20191;-72
2021/04/15 00:54:28;;;;;;;7.53;4.97;;;0.30;99.90;;;;;;5046357;28;20203;-67
2021/04/15 00:56:55;;;;;;;9.27;4.60;;;0.20;99.90;;;;;;5046190;28;20187;-64
2021/04/15 00:59:21;;;;;;;9.93;5.03;;;0.10;99.90;;;;;;5044347;28;20203;-65
2021/04/15 01:01:49;;;;;;;6.67;5.47;;;0.10;99.90;;;;;;5047643;28;20257;-68
2021/04/15 01:04:15;;;;;;;6.20;4.67;;;0.00;99.90;;;;;;5046252;28;20199;-68
2021/04/15 01:06:42;;;;;;;7.73;5.27;;;0.00;99.90;;;;;;5046138;28;20223;-65
2021/04/15 01:09:08;;;;;;;9.70;5.30;;;0.00;99.90;;;;;;5044789;28;20548;-65
2021/04/15 01:11:48;;;;;;;7.77;4.97;;;0.00;99.90;;;;;;5044865;28;20246;-63
2021/04/15 01:14:24;;;;;;;9.40;5.13;;;-0.10;99.90;;;;;;5047123;28;20203;-64
2021/04/15 01:17:00;;;;;;;11.37;5.60;;;-0.10;99.90;;;;;;5045479;28;20199;-72
2021/04/15 01:20:08;;;;;;;7.40;5.93;;;-0.10;99.90;;;;;;5046290;28;20203;-64
2021/04/15 01:22:48;;;;;;;9.40;5.40;;;-0.10;99.90;;;;;;5025608;28;20211;-64
2021/04/15 01:25:27;;;;;;;9.10;6.30;;;0.00;99.90;;;;;;5047457;28;20188;-64
2021/04/15 01:27:56;;;;;;;11.60;6.43;;;0.00;99.90;;;;;;5043476;28;20658;-66
2021/04/15 01:30:29;;;;;;;12.27;6.27;;;0.00;99.90;;;;;;5067255;28;20187;-68
2021/04/15 01:33:07;;;;;;;11.33;6.20;;;0.10;99.90;;;;;;5050599;28;20237;-68
2021/04/15 01:35:39;;;;;;;9.63;6.97;;;0.10;99.90;;;;;;5051960;28;20203;-70
2021/04/15 01:38:10;;;;;;;12.13;6.17;;;0.10;99.90;;;;;;5047256;28;20192;-68
2021/04/15 01:40:41;;;;;;;8.37;6.43;;;0.20;99.90;;;;;;5046847;28;20192;-72
2021/04/15 01:43:16;;;;;;;8.13;6.57;;;0.20;99.90;;;;;;5046284;28;20204;-71
2021/04/15 01:45:45;;;;;;;12.17;8.37;;;0.20;99.90;;;;;;5055711;28;20210;-68
2021/04/15 01:48:15;;;;;;;11.70;7.23;;;0.30;99.90;;;;;;5048421;28;20200;-65
2021/04/15 01:50:46;;;;;;;12.73;7.87;;;0.20;99.90;;;;;;5047155;28;20555;-65
2021/04/15 01:53:17;;;;;;;13.10;7.37;;;0.20;99.90;;;;;;5045128;28;20199;-65
2021/04/15 01:55:49;;;;;;;13.90;7.77;;;0.10;99.90;;;;;;5046087;28;20222;-71
2021/04/15 01:58:21;;;;;;;8.70;6.70;;;0.00;99.90;;;;;;5045136;28;20249;-66
2021/04/15 02:00:54;;;;;;;10.00;6.47;;;0.00;99.90;;;;;;5047004;28;20228;-75
2021/04/15 02:03:27;;;;;;;7.43;6.13;;;-0.10;99.90;;;;;;5045017;28;20686;-65
2021/04/15 02:05:58;;;;;;;9.17;6.10;;;-0.10;99.90;;;;;;5046667;28;20851;-65
2021/04/15 02:08:30;;;;;;;12.57;7.00;;;-0.20;99.90;;;;;;5042216;28;20282;-65
2021/04/15 02:11:01;;;;;;;11.07;7.27;;;-0.20;99.90;;;;;;5044499;28;20196;-70
2021/04/15 02:13:30;;;;;;;13.13;7.23;;;-0.20;99.90;;;;;;5043071;28;20193;-65
2021/04/15 02:16:02;;;;;;;13.53;7.17;;;-0.20;99.90;;;;;;5045042;28;20191;-71
2021/04/15 02:18:35;;;;;;;13.23;7.30;;;-0.10;99.90;;;;;;5041468;28;20226;-64
2021/04/15 02:21:10;;;;;;;10.27;7.40;;;-0.10;99.90;;;;;;5038369;28;20249;-65
2021/04/15 02:23:42;;;;;;;11.77;7.03;;;0.00;99.90;;;;;;5046763;28;20223;-66
2021/04/15 02:26:14;;;;;;;13.13;7.37;;;0.00;99.90;;;;;;5044485;28;20726;-66
2021/04/15 02:28:46;;;;;;;12.90;7.93;;;0.00;99.90;;;;;;5048250;28;20188;-65
2021/04/15 02:31:17;;;;;;;15.50;7.50;;;0.00;99.90;;;;;;5051013;28;20212;-65
2021/04/15 02:33:49;;;;;;;16.77;7.67;;;0.00;99.90;;;;;;5050464;28;20312;-70
2021/04/15 02:36:17;;;;;;;12.87;7.97;;;0.00;99.90;;;;;;5047961;28;20200;-67
2021/04/15 02:38:48;;;;;;;10.80;7.90;;;0.10;99.90;;;;;;5055053;28;20683;-72
2021/04/15 02:41:20;;;;;;;10.37;7.10;;;0.00;99.90;;;;;;5048783;28;20423;-72
2021/04/15 02:43:51;;;;;;;11.27;7.17;;;0.00;99.90;;;;;;5048976;28;21015;-76
2021/04/15 02:46:26;;;;;;;8.77;7.00;;;-0.10;99.90;;;;;;5047229;28;20220;-77
2021/04/15 02:48:57;;;;;;;14.50;7.57;;;-0.10;99.90;;;;;;5049788;28;20191;-70
2021/04/15 02:51:27;;;;;;;11.37;7.30;;;-0.10;99.90;;;;;;5049358;28;20670;-78
2021/04/15 02:54:00;;;;;;;7.53;6.20;;;-0.10;99.90;;;;;;5050180;28;20253;-77
2021/04/15 02:56:33;;;;;;;10.47;6.90;;;-0.10;99.90;;;;;;5048999;28;20560;-74
2021/04/15 02:59:05;;;;;;;14.57;7.33;;;-0.10;99.90;;;;;;5051255;28;20192;-70
2021/04/15 03:01:39;;;;;;;12.47;7.20;;;-0.20;99.90;;;;;;5065077;28;20247;-74
2021/04/15 03:04:10;;;;;;;15.23;7.33;;;-0.10;99.90;;;;;;5049737;28;20188;-70
2021/04/15 03:06:37;;;;;;;11.87;7.20;;;-0.10;99.90;;;;;;5048690;28;20217;-72
2021/04/15 03:09:08;;;;;;;10.23;7.47;;;-0.20;99.90;;;;;;5048748;28;20204;-77
2021/04/15 03:11:40;;;;;;;12.87;7.73;;;-0.20;99.90;;;;;;5049439;28;20245;-72
2021/04/15 03:14:10;;;;;;;11.27;7.60;;;-0.10;99.90;;;;;;5049350;28;20192;-75
2021/04/15 03:16:40;;;;;;;12.07;7.47;;;-0.10;99.90;;;;;;5048348;28;20203;-78
2021/04/15 03:19:13;;;;;;;13.43;7.83;;;-0.10;99.90;;;;;;5055791;28;20195;-78
2021/04/15 03:21:46;;;;;;;12.47;7.43;;;-0.10;99.90;;;;;;5069664;28;20191;-77
2021/04/15 03:24:18;;;;;;;13.20;8.10;;;-0.10;99.90;;;;;;5069532;28;20192;-77
2021/04/15 03:26:53;;;;;;;13.03;9.27;;;0.00;99.90;;;;;;5060318;28;20620;-76
2021/04/15 03:29:25;;;;;;;16.77;9.03;;;0.10;99.90;;;;;;5046652;28;20202;-78
2021/04/15 03:32:03;;;;;;;17.37;9.63;;;0.10;99.90;;;;;;5048482;28;20196;-78
2021/04/15 03:34:37;;;;;;;13.03;8.87;;;0.20;99.90;;;;;;5029591;28;20525;-76
2021/04/15 03:37:05;;;;;;;14.83;9.07;;;0.30;99.90;;;;;;5040242;28;20556;-75
2021/04/15 03:39:34;;;;;;;12.60;9.13;;;0.30;99.90;;;;;;5049090;28;20222;-78
2021/04/15 03:42:07;;;;;;;19.60;10.90;;;0.50;99.90;;;;;;5046599;28;20211;-78
2021/04/15 03:44:39;;;;;;;16.53;11.07;;;0.70;99.90;;;;;;5047056;28;20747;-80
2021/04/15 03:47:10;;;;;;;15.17;9.10;;;1.10;99.90;;;;;;5054976;28;20249;-78
2021/04/15 03:49:41;;;;;;;16.10;9.90;;;1.50;99.90;;;;;;5048803;28;20203;-81
2021/04/15 03:52:12;;;;;;;12.13;8.33;;;1.90;99.90;;;;;;5049461;28;20192;-77
2021/04/15 03:54:44;;;;;;;12.33;8.00;;;2.10;99.90;;;;;;5046930;28;20767;-79
2021/04/15 03:57:15;;;;;;;9.73;5.13;;;2.20;99.90;;;;;;5047801;28;21032;-81
2021/04/15 03:59:47;;;;;;;10.80;4.70;;;2.30;99.90;;;;;;5049413;28;20243;-83
2021/04/15 04:02:16;;;;;;;5.10;3.23;;;2.50;99.90;;;;;;5067804;28;20210;-86
2021/04/15 04:04:49;;;;;;;4.53;3.13;;;2.50;99.90;;;;;;5072237;28;20195;-82
2021/04/15 04:07:20;;;;;;;6.90;3.87;;;2.70;99.90;;;;;;5047478;28;20310;-86
2021/04/15 04:09:54;;;;;;;8.17;4.23;;;2.70;99.90;;;;;;5050424;28;20241;-80
2021/04/15 04:12:29;;;;;;;7.20;3.70;;;2.70;99.90;;;;;;5041161;28;20203;-85
2021/04/15 04:15:02;;;;;;;10.37;3.47;;;2.60;99.90;;;;;;5036452;28;20288;-80
2021/04/15 04:17:36;;;;;;;3.70;3.03;;;2.50;99.90;;;;;;5031648;28;20254;-78
2021/04/15 04:20:05;;;;;;;3.60;3.07;;;2.30;99.90;;;;;;5048692;28;20192;-81
2021/04/15 04:22:39;;;;;;;0.63;0.53;;;2.10;99.90;;;;;;5047876;28;20824;-80
2021/04/15 04:25:13;;;;;;;0.00;0.00;;;1.90;99.90;;;;;;5037083;28;20191;-81
2021/04/15 04:27:45;;;;;;;0.00;0.00;;;1.80;99.90;;;;;;5047812;28;20211;-79
2021/04/15 04:30:14;;;;;;;0.00;0.00;;;1.70;99.90;;;;;;5047791;28;20290;-79
2021/04/15 04:32:45;;;;;;;0.00;0.00;;;1.60;99.90;;;;;;5039881;28;20907;-82
2021/04/15 04:35:18;;;;;;;0.00;0.00;;;1.50;99.90;;;;;;5035677;28;20200;-80
2021/04/15 04:37:47;;;;;;;0.00;0.00;;;1.50;99.90;;;;;;5048131;28;20195;-83
2021/04/15 04:40:18;;;;;;;0.00;0.00;;;1.50;99.90;;;;;;5029617;28;20653;-83
2021/04/15 04:42:50;;;;;;;0.00;0.00;;;1.40;99.90;;;;;;5033608;28;20200;-82
2021/04/15 04:45:19;;;;;;;0.00;0.00;;;1.40;99.90;;;;;;5039522;28;20192;-78
2021/04/15 04:47:51;;;;;;;0.00;0.00;;;1.30;99.90;;;;;;5049115;28;20199;-70
2021/04/15 04:50:38;;;;;;;0.00;0.00;;;1.30;99.90;;;;;;5044898;28;20219;-82
2021/04/15 04:53:07;;;;;;;0.00;0.00;;;1.30;99.90;;;;;;5046854;28;20187;-81
2021/04/15 04:55:38;;;;;;;0.00;0.00;;;1.40;99.90;;;;;;5040102;28;20196;-82
2021/04/15 04:58:10;;;;;;;0.00;0.00;;;1.60;99.90;;;;;;5046464;28;20484;-75
2021/04/15 05:00:41;;;;;;;0.00;0.00;;;1.70;99.90;;;;;;5040149;28;20235;-73
2021/04/15 05:03:09;;;;;;;0.10;0.10;;;1.90;99.90;;;;;;5045572;28;20383;-75
2021/04/15 05:05:35;;;;;;;0.17;0.17;;;2.10;99.90;;;;;;5046460;28;20206;-78
2021/04/15 05:08:05;;;;;;;0.27;0.27;;;2.20;99.90;;;;;;5047581;28;20204;-75
2021/04/15 05:10:33;;;;;;;0.00;0.00;;;2.40;99.90;;;;;;5044015;28;20192;-76
2021/04/15 05:13:11;;;;;;;0.00;0.00;;;2.50;99.90;;;;;;5043271;28;20199;-79
2021/04/15 05:15:40;;;;;;;0.00;0.00;;;2.50;99.90;;;;;;5033378;28;20682;-79
2021/04/15 05:18:10;;;;;;;0.00;0.00;;;2.60;99.90;;;;;;5033822;28;20218;-78
2021/04/15 05:20:37;;;;;;;0.00;0.00;;;2.70;99.90;;;;;;5031320;28;20191;-76
2021/04/15 05:23:10;;;;;;;0.00;0.00;;;2.90;99.90;;;;;;5046065;28;20188;-74
2021/04/15 05:25:41;;;;;;;0.00;0.00;;;3.10;99.90;;;;;;5040378;28;20207;-78
2021/04/15 05:28:12;;;;;;;0.20;0.20;;;3.50;99.90;;;;;;5046032;28;20192;-79
2021/04/15 05:30:42;;;;;;;0.00;0.00;;;3.80;99.90;;;;;;5044498;28;20195;-76
2021/04/15 05:33:14;;;;;;;0.00;0.00;;;3.90;99.90;;;;;;5045035;28;20199;-80
2021/04/15 05:35:43;;;;;;;0.00;0.00;;;4.00;99.90;;;;;;5032236;28;20520;-79
2021/04/15 05:38:13;;;;;;;0.00;0.00;;;4.20;99.90;;;;;;5049647;28;20195;-78
2021/04/15 05:40:40;;;;;;;0.00;0.00;;;4.50;99.90;;;;;;5041163;28;20203;-78
2021/04/15 05:43:27;;;;;;;0.10;0.10;;;5.10;99.90;;;;;;5047263;28;20628;-79
2021/04/15 05:46:03;;;;;;;0.00;0.00;;;5.80;99.90;;;;;;5045266;28;20219;-79
2021/04/15 05:48:32;;;;;;;0.40;0.40;;;6.40;99.90;;;;;;5043700;28;20557;-75
2021/04/15 05:51:04;;;;;;;0.00;0.00;;;6.90;99.90;;;;;;5027253;28;20200;-77
2021/04/15 05:53:36;;;;;;;0.27;0.27;;;7.40;99.90;;;;;;5027588;28;20350;-71
2021/04/15 05:56:07;;;;;;;0.00;0.00;;;8.00;99.90;;;;;;5036039;28;20200;-82
2021/04/15 05:58:38;;;;;;;0.00;0.00;;;8.70;99.90;;;;;;5041201;28;20234;-73
2021/04/15 06:01:09;;;;;;;0.67;0.67;;;9.10;99.90;;;;;;5044728;28;20253;-77
2021/04/15 06:03:44;;;;;;;0.50;0.47;;;9.60;99.90;;;;;;5050687;28;20192;-77
2021/04/15 06:06:15;;;;;;;0.00;0.00;;;10.00;99.90;;;;;;5050478;28;20215;-75
2021/04/15 06:08:44;;;;;;;0.20;0.20;;;10.30;99.90;;;;;;5049669;28;20199;-75
2021/04/15 06:11:35;;;;;;;0.00;0.00;;;10.50;99.90;;;;;;5049073;28;20671;-75
2021/04/15 06:14:08;;;;;;;0.00;0.00;;;10.70;99.90;;;;;;5048415;28;20200;-74
2021/04/15 06:16:46;;;;;;;0.23;0.23;;;11.10;99.90;;;;;;5050570;28;20241;-74
2021/04/15 06:19:17;;;;;;;0.00;0.00;;;10.60;99.90;;;;;;5050803;28;20196;-76
2021/04/15 06:21:46;;;;;;;0.00;0.00;;;9.70;99.90;;;;;;5046874;28;20203;-76
2021/04/15 06:24:16;;;;;;;0.20;0.20;;;9.10;99.90;;;;;;5049314;28;20233;-77
2021/04/15 06:26:46;;;;;;;0.00;0.00;;;8.50;99.90;;;;;;5050260;28;20223;-78
2021/04/15 06:29:23;;;;;;;0.00;0.00;;;8.00;99.90;;;;;;5048112;28;20206;-76
2021/04/15 06:31:53;;;;;;;0.37;0.37;;;7.80;99.90;;;;;;5049253;28;20651;-77
2021/04/15 06:34:21;;;;;;;0.13;0.13;;;8.40;99.90;;;;;;5048411;28;20200;-77
2021/04/15 06:36:55;;;;;;;0.10;0.10;;;8.60;99.90;;;;;;5030191;28;20203;-79
2021/04/15 06:39:29;;;;;;;0.00;0.00;;;8.70;99.90;;;;;;5047776;28;20617;-79
2021/04/15 06:42:48;;;;;;;0.10;0.10;;;8.60;99.90;;;;;;5048675;28;20246;-70
2021/04/15 06:45:50;;;;;;;0.00;0.00;;;8.20;99.90;;;;;;5035626;28;20203;-77
2021/04/15 06:48:43;;;;;;;0.00;0.00;;;7.90;99.90;;;;;;5037791;28;20206;-78
2021/04/15 06:51:43;;;;;;;0.00;0.00;;;7.50;99.90;;;;;;5046886;28;20196;-71
2021/04/15 06:54:34;;;;;;;2.33;1.60;;;7.30;99.90;;;;;;5048095;28;20215;-77
2021/04/15 06:57:28;;;;;;;5.70;2.07;;;7.60;99.90;;;;;;5046507;28;20200;-77
2021/04/15 07:00:24;;;;;;;3.70;2.10;;;8.50;99.90;;;;;;5046481;28;20708;-72
2021/04/15 07:03:09;;;;;;;2.97;1.97;;;8.60;99.90;;;;;;5046458;28;20195;-67
2021/04/15 07:05:44;;;;;;;3.17;1.73;;;8.20;99.90;;;;;;5047756;28;20207;-66
2021/04/15 07:08:42;;;;;;;3.77;1.87;;;7.60;99.90;;;;;;5049306;28;20197;-68
2021/04/15 07:11:27;;;;;;;2.70;1.70;;;7.30;99.90;;;;;;5051455;28;20687;-67
2021/04/15 07:14:12;;;;;;;3.67;1.70;;;7.00;99.90;;;;;;5048228;28;20195;-71
2021/04/15 07:16:59;;;;;;;3.40;1.67;;;7.10;99.90;;;;;;5057131;28;20199;-67
2021/04/15 07:20:00;;;;;;;2.03;1.77;;;7.20;99.90;;;;;;5029363;28;20596;-72
2021/04/15 07:23:02;;;;;;;3.03;1.90;;;7.30;99.90;;;;;;5041556;28;20203;-75
2021/04/15 07:25:52;;;;;;;2.47;1.90;;;7.40;99.90;;;;;;5042293;28;20832;-81
2021/04/15 07:28:55;;;;;;;1.83;1.60;;;7.30;99.90;;;;;;5041273;28;20199;-76
2021/04/15 07:31:44;;;;;;;3.90;1.87;;;7.00;99.90;;;;;;5038813;28;20815;-73
2021/04/15 07:34:51;;;;;;;5.13;2.20;;;6.70;99.90;;;;;;5045238;28;20203;-79
2021/04/15 07:37:46;;;;;;;4.13;1.83;;;7.80;99.90;;;;;;5038290;28;20196;-76
2021/04/15 07:40:49;;;;;;;2.23;1.47;;;9.40;99.90;;;;;;5000697;28;20209;-79
2021/04/15 07:43:49;;;;;;;2.97;1.40;;;10.50;99.90;;;;;;5002491;28;20207;-77
2021/04/15 07:46:29;;;;;;;1.87;1.60;;;10.90;99.90;;;;;;5041877;28;20292;-76
2021/04/15 07:49:43;;;;;;;1.57;1.07;;;10.40;99.90;;;;;;5039134;28;20203;-76
2021/04/15 07:52:50;;;;;;;1.40;1.10;;;9.70;99.90;;;;;;4985845;28;20202;-75
2021/04/15 07:55:52;;;;;;;3.20;1.03;;;9.80;99.90;;;;;;5054895;28;20700;-75
2021/04/15 07:58:39;;;;;;;1.27;1.13;;;11.00;99.90;;;;;;5049721;28;20688;-75
2021/04/15 08:01:36;;;;;;;2.17;1.30;;;11.50;99.90;;;;;;5042703;28;20369;-75
2021/04/15 08:04:49;;;;;;;1.67;1.00;;;12.10;99.90;;;;;;5046563;28;20210;-76
2021/04/15 08:07:41;;;;;;;4.13;1.20;;;12.80;99.90;;;;;;5042177;28;20216;-75
2021/04/15 08:10:27;;;;;;;1.33;1.07;;;13.10;99.90;;;;;;5042244;28;20219;-75
2021/04/15 08:13:21;;;;;;;2.63;1.30;;;13.50;99.90;;;;;;5028827;28;20647;-74
2021/04/15 08:16:21;;;;;;;4.33;1.37;;;13.50;99.90;;;;;;5040159;28;20687;-74
2021/04/15 08:18:52;;;;;;;1.93;1.30;;;13.90;99.90;;;;;;5043542;28;20667;-74
2021/04/15 08:21:30;;;;;;;3.27;1.47;;;14.70;99.90;;;;;;5045191;28;20204;-74
2021/04/15 08:24:37;;;;;;;2.97;1.50;;;15.00;99.90;;;;;;5044114;28;20201;-75
2021/04/15 08:27:30;;;;;;;3.13;1.63;;;15.40;99.90;;;;;;5035937;28;20235;-74
2021/04/15 08:30:23;;;;;;;2.40;1.47;;;16.00;99.90;;;;;;5039095;28;20200;-72
2021/04/15 08:33:02;;;;;;;4.13;1.70;;;15.40;99.90;;;;;;5041117;28;20215;-72
2021/04/15 08:35:37;;;;;;;2.73;1.70;;;14.00;99.90;;;;;;5035966;28;20200;-66
2021/04/15 08:38:23;;;;;;;4.17;2.10;;;12.70;99.90;;;;;;5041770;28;20214;-68
2021/04/15 08:40:56;;;;;;;4.87;2.10;;;11.40;99.90;;;;;;5041905;28;20203;-69
2021/04/15 08:43:32;;;;;;;5.40;2.33;;;10.50;99.90;;;;;;5045935;28;20199;-71
2021/04/15 08:46:10;;;;;;;3.20;2.10;;;10.50;99.90;;;;;;5037988;28;20753;-70
2021/04/15 08:48:51;;;;;;;3.50;2.20;;;11.80;99.90;;;;;;5042812;28;20188;-73
2021/04/15 08:51:46;;;;;;;3.80;2.10;;;13.80;99.90;;;;;;5034864;28;20581;-72
2021/04/15 08:54:48;;;;;;;3.53;2.07;;;14.10;99.90;;;;;;5047537;28;20390;-70
2021/04/15 08:57:27;;;;;;;3.43;2.00;;;13.40;99.90;;;;;;5016980;28;20543;-70
2021/04/15 09:00:23;;;;;;;3.40;1.97;;;13.30;99.90;;;;;;5046501;28;20226;-73
2021/04/15 09:03:01;;;;;;;4.43;1.97;;;12.90;99.90;;;;;;5028038;28;20758;-69
2021/04/15 09:05:37;;;;;;;4.07;2.20;;;12.30;99.90;;;;;;5045856;28;20199;-70
2021/04/15 09:08:13;;;;;;;3.43;2.10;;;12.30;99.90;;;;;;5044198;28;20223;-66
2021/04/15 09:10:47;;;;;;;4.33;2.23;;;12.10;99.90;;;;;;5037966;28;20204;-66
2021/04/15 09:13:35;;;;;;;4.13;2.57;;;11.90;99.90;;;;;;5036239;28;20248;-66
2021/04/15 09:16:20;;;;;;;4.23;2.50;;;11.70;99.90;;;;;;5036507;28;20200;-71
2021/04/15 09:18:58;;;;;;;5.43;3.30;;;11.60;99.90;;;;;;5038045;28;20226;-72
2021/04/15 09:21:38;;;;;;;4.87;2.83;;;11.40;99.90;;;;;;5037170;28;20225;-74
2021/04/15 09:24:21;;;;;;;5.80;2.90;;;10.90;99.90;;;;;;5035802;28;20208;-71
2021/04/15 09:27:14;;;;;;;7.07;2.83;;;10.70;99.90;;;;;;5037684;28;20242;-74
2021/04/15 09:29:53;;;;;;;5.67;3.17;;;10.30;99.90;;;;;;5037925;28;20230;-74
2021/04/15 09:32:22;;;;;;;8.63;3.80;;;10.10;99.90;;;;;;5037048;28;20215;-67
2021/04/15 09:35:12;;;;;;;6.90;3.13;;;9.90;99.90;;;;;;5039292;28;20202;-72
2021/04/15 09:38:18;;;;;;;6.30;3.93;;;10.00;99.90;;;;;;5033519;28;20202;-67
2021/04/15 09:41:06;;;;;;;6.43;3.93;;;10.10;99.90;;;;;;5039822;28;20192;-67
2021/04/15 09:44:07;;;;;;;3.97;2.90;;;10.90;99.90;;;;;;5027745;28;20206;-66
2021/04/15 09:46:47;;;;;;;4.90;2.93;;;11.50;99.90;;;;;;5044082;28;20234;-68
2021/04/15 09:49:40;;;;;;;4.00;2.80;;;11.20;99.90;;;;;;5049459;28;20289;-66
2021/04/15 09:52:22;;;;;;;5.77;3.07;;;10.90;99.90;;;;;;5048566;28;20288;-69
2021/04/15 09:55:02;;;;;;;3.50;2.60;;;10.80;99.90;;;;;;5048973;28;20208;-70
2021/04/15 09:57:37;;;;;;;7.43;3.73;;;10.60;99.90;;;;;;5049916;28;20211;-64
2021/04/15 10:00:15;;;;;;;5.30;3.90;;;10.20;99.90;;;;;;5045291;28;20257;-67
2021/04/15 10:02:54;;;;;;;4.83;3.30;;;10.00;99.90;;;;;;5042360;28;20310;-72
2021/04/15 10:05:38;;;;;;;6.63;3.50;;;10.20;99.90;;;;;;5039836;28;21835;-73
2021/04/15 10:08:11;;;;;;;6.57;3.33;;;10.40;99.90;;;;;;5041946;28;20224;-68
2021/04/15 10:10:47;;;;;;;7.77;3.40;;;10.60;99.90;;;;;;5048257;28;20215;-76
2021/04/15 10:13:27;;;;;;;5.60;3.60;;;10.80;99.90;;;;;;5041609;28;20323;-74
2021/04/15 10:15:58;;;;;;;6.43;3.77;;;10.80;99.90;;;;;;5039376;28;20237;-72
2021/04/15 10:18:43;;;;;;;6.00;3.90;;;11.00;99.90;;;;;;5040974;28;20204;-67
2021/04/15 10:21:35;;;;;;;8.40;4.60;;;10.60;99.90;;;;;;5039480;28;20312;-66
2021/04/15 10:24:32;;;;;;;4.67;3.43;;;10.60;99.90;;;;;;5041696;28;20289;-68
2021/04/15 10:27:41;;;;;;;3.27;2.97;;;10.70;99.90;;;;;;4994635;28;20239;-73
2021/04/15 10:30:40;;;;;;;4.70;3.33;;;10.60;99.90;;;;;;5039736;28;20195;-70
2021/04/15 10:33:40;;;;;;;4.17;3.63;;;10.50;99.90;;;;;;5038435;28;20273;-68
2021/04/15 10:36:58;;;;;;;5.80;3.50;;;10.10;99.90;;;;;;5036535;28;20200;-69
2021/04/15 10:40:00;;;;;;;11.17;4.17;;;9.80;99.90;;;;;;5038232;28;20219;-72
2021/04/15 10:43:07;;;;;;;4.50;3.20;;;9.70;99.90;;;;;;5040464;28;20196;-69
2021/04/15 10:46:07;;;;;;;14.47;4.63;;;9.50;99.90;;;;;;5037061;28;20204;-67
2021/04/15 10:48:43;;;;;;;4.80;4.10;;;9.40;99.90;;;;;;5040513;28;20668;-67
2021/04/15 10:51:23;;;;;;;5.53;4.13;;;9.30;99.90;;;;;;5042237;28;20188;-71
2021/04/15 10:53:53;;;;;;;9.27;5.30;;;9.20;99.90;;;;;;5040407;28;20214;-72
2021/04/15 10:56:42;;;;;;;7.23;4.23;;;9.00;99.90;;;;;;5039472;28;20241;-69
2021/04/15 10:59:14;;;;;;;5.37;2.70;;;8.80;99.90;;;;;;5050070;28;20494;-74
2021/04/15 11:01:43;;;;;;;6.70;3.17;;;8.90;99.90;;;;;;5044023;28;20223;-68
2021/04/15 11:04:29;;;;;;;4.93;2.60;;;8.90;99.90;;;;;;5045256;28;20208;-68
2021/04/15 11:06:57;;;;;;;5.10;3.37;;;8.90;99.90;;;;;;5040078;28;20231;-74
2021/04/15 11:09:32;;;;;;;3.43;2.70;;;9.00;99.90;;;;;;5040523;28;20211;-66
2021/04/15 11:12:03;;;;;;;6.03;3.20;;;9.10;99.90;;;;;;5037892;28;20463;-70
2021/04/15 11:14:34;;;;;;;4.27;3.10;;;9.30;99.90;;;;;;5042050;28;20199;-69
2021/04/15 11:17:05;;;;;;;8.77;3.27;;;9.50;99.90;;;;;;5035813;28;20199;-68
2021/04/15 11:19:32;;;;;;;4.90;3.30;;;9.70;99.90;;;;;;5046777;28;20241;-73
2021/04/15 11:22:17;;;;;;;3.97;2.90;;;9.90;99.90;;;;;;5047648;28;20796;-70
2021/04/15 11:24:43;;;;;;;3.23;2.90;;;9.90;99.90;;;;;;5048811;28;20206;-69
2021/04/15 11:27:10;;;;;;;3.97;3.20;;;10.10;99.90;;;;;;5051211;28;20227;-69
2021/04/15 11:29:41;;;;;;;5.70;3.33;;;10.30;99.90;;;;;;5051406;28;20198;-66
2021/04/15 11:32:28;;;;;;;6.10;3.80;;;10.50;99.90;;;;;;5068673;28;20237;-67
2021/04/15 11:35:07;;;;;;;3.87;3.00;;;10.80;99.90;;;;;;5047224;28;20651;-70
2021/04/15 11:37:34;;;;;;;5.93;2.93;;;11.00;99.90;;;;;;5058888;28;20198;-66
2021/04/15 11:40:25;;;;;;;6.37;3.00;;;11.10;99.90;;;;;;5053941;28;20204;-67
2021/04/15 11:42:52;;;;;;;4.43;2.57;;;11.10;99.90;;;;;;5036110;28;20211;-72
2021/04/15 11:45:32;;;;;;;4.50;3.10;;;11.30;99.90;;;;;;5042157;28;20231;-69
2021/04/15 11:48:19;;;;;;;6.73;3.10;;;11.60;99.90;;;;;;5044600;28;20212;-73
2021/04/15 11:50:48;;;;;;;4.77;3.20;;;12.00;99.90;;;;;;5052936;28;21020;-76
2021/04/15 11:53:40;;;;;;;4.83;4.33;;;13.20;99.90;;;;;;5045597;28;20207;-75
2021/04/15 11:56:20;;;;;;;5.10;4.60;;;14.90;99.90;;;;;;5043070;28;20956;-70
2021/04/15 11:58:47;;;;;;;5.70;5.20;;;16.40;99.90;;;;;;5047886;28;20207;-70
2021/04/15 12:01:24;;;;;;;7.17;5.27;;;16.90;99.90;;;;;;5047729;28;20227;-71
2021/04/15 12:03:58;;;;;;;5.73;4.87;;;17.30;99.90;;;;;;5045377;28;20282;-74
2021/04/15 12:06:32;;;;;;;5.90;4.50;;;17.50;99.90;;;;;;5047896;28;20210;-69
2021/04/15 12:09:01;;;;;;;5.73;3.23;;;16.40;99.90;;;;;;5046597;28;20222;-68
2021/04/15 12:11:32;;;;;;;4.40;3.07;;;15.40;99.90;;;;;;5045903;28;20200;-75
2021/04/15 12:14:02;;;;;;;6.20;3.20;;;14.60;99.90;;;;;;5059129;28;20600;-74
2021/04/15 12:16:37;;;;;;;4.87;3.70;;;13.50;99.90;;;;;;5046313;28;20195;-71
2021/04/15 12:19:13;;;;;;;4.47;3.60;;;12.90;99.90;;;;;;5047036;28;20257;-70
2021/04/15 12:21:47;;;;;;;2.70;2.30;;;12.90;99.90;;;;;;5045984;28;20667;-75
2021/04/15 12:24:20;;;;;;;5.97;3.07;;;12.50;99.90;;;;;;5045618;28;20196;-75
2021/04/15 12:26:51;;;;;;;10.07;3.57;;;12.30;99.90;;;;;;5046514;28;20222;-75
2021/04/15 12:29:22;;;;;;;5.97;2.60;;;11.80;99.90;;;;;;5046508;28;20204;-70
2021/04/15 12:31:54;;;;;;;4.17;3.30;;;12.50;99.90;;;;;;5047388;28;20195;-76
2021/04/15 12:34:51;;;;;;;3.57;2.93;;;13.20;99.90;;;;;;5042701;28;20199;-73
2021/04/15 12:37:26;;;;;;;4.03;2.30;;;14.00;99.90;;;;;;5030201;28;20761;-65
2021/04/15 12:40:12;;;;;;;3.53;2.50;;;14.60;99.90;;;;;;5047529;28;20209;-75
2021/04/15 12:42:41;;;;;;;3.00;2.57;;;15.30;99.90;;;;;;5043499;28;20806;-68
2021/04/15 12:45:14;;;;;;;3.07;2.53;;;14.50;99.90;;;;;;5040192;28;20603;-67
2021/04/15 12:47:43;;;;;;;2.53;2.03;;;13.50;99.90;;;;;;5037865;28;20308;-69
2021/04/15 12:50:11;;;;;;;7.00;2.50;;;13.00;99.90;;;;;;5046734;28;20211;-70
2021/04/15 12:52:38;;;;;;;4.30;2.87;;;12.40;99.90;;;;;;5046921;28;20203;-71
2021/04/15 12:55:13;;;;;;;3.80;2.07;;;12.10;99.90;;;;;;5046485;28;20215;-72
2021/04/15 12:57:40;;;;;;;2.60;2.40;;;11.90;99.90;;;;;;5047171;28;20199;-69
2021/04/15 13:00:11;;;;;;;3.43;2.57;;;11.60;99.90;;;;;;5046208;28;20312;-70
2021/04/15 13:02:37;;;;;;;3.00;2.53;;;11.40;99.90;;;;;;5037262;28;20713;-68
2021/04/15 13:05:09;;;;;;;3.03;1.60;;;11.40;99.90;;;;;;5041503;28;20216;-71
2021/04/15 13:07:37;;;;;;;2.90;1.67;;;11.20;99.90;;;;;;5037592;28;20242;-75
2021/04/15 13:10:30;;;;;;;1.90;1.80;;;11.20;99.90;;;;;;5037549;28;20200;-69
2021/04/15 13:12:58;;;;;;;3.37;1.77;;;11.10;99.90;;;;;;5008447;28;20199;-72
2021/04/15 13:15:43;;;;;;;2.30;2.10;;;11.40;99.90;;;;;;5038066;28;20230;-72
2021/04/15 13:18:33;;;;;;;2.50;1.90;;;13.10;99.90;;;;;;5042439;28;20245;-72
2021/04/15 13:21:11;;;;;;;2.03;1.80;;;14.40;99.90;;;;;;5049314;28;20204;-70
2021/04/15 13:23:46;;;;;;;1.87;1.77;;;15.00;99.90;;;;;;5048070;28;20179;-68
2021/04/15 13:26:27;;;;;;;2.60;1.80;;;14.90;99.90;;;;;;5038334;28;20652;-72
2021/04/15 13:31:36;;;;;;;2.13;1.80;;;13.30;99.90;;;;;;5043985;23;20247;-67
2021/04/15 13:34:07;;;;;;;3.13;2.23;;;13.00;99.90;;;;;;5012767;28;20212;-66
2021/04/15 13:36:34;;;;;;;6.40;3.20;;;13.30;99.90;;;;;;5024615;28;20215;-72
2021/04/15 13:39:42;;;;;;;2.60;2.17;;;13.30;99.90;;;;;;5025795;28;20208;-74
2021/04/15 13:42:35;;;;;;;2.50;2.30;;;12.90;99.90;;;;;;5023074;28;20200;-73
2021/04/15 13:45:11;;;;;;;4.37;2.70;;;12.10;99.90;;;;;;5025922;28;20209;-72
2021/04/15 13:47:56;;;;;;;3.60;2.50;;;11.60;99.90;;;;;;5020334;28;20217;-69